Flight Track Log - Related Links

Times and Time Zones

All times are in EDT time to prevent confusion due to time zone crossing. See the N137TK flight status page for this flight to view local times or setup timezone preferences in your user account.

Time Position Orientation Groundspeed Altitude Reporting Facility
EDT Latitude Longitude Course Direction KTS MPH feet Rate Location/Type
Tue 04:38:19 PM 30.0569 -90.0297 57° Northeast 126 145 400  Level Houston Center
Tue 04:39:32 PM 30.0767 -89.9953 57° Northeast 176 203 2,600 1,811 Climbing Houston Center
Tue 04:40:05 PM 30.0547 -89.9828 154° Southeast 175 201 3,600 1,964 Climbing Houston Center
Tue 04:40:27 PM 30.0344 -89.9825 179° South 182 209 4,400 1,839 Climbing Houston Center
Tue 04:41:07 PM 30.0033 -89.9800 176° South 182 209 5,500 1,706 Climbing Houston Center
Tue 04:42:09 PM 29.9528 -89.9781 178° South 182 209 7,300 1,645 Climbing Houston Center
Tue 04:43:11 PM 29.9022 -89.9714 173° South 183 211 8,900 1,500 Climbing Houston Center
Tue 04:44:13 PM 29.8497 -89.9647 174° South 186 214 10,400 1,584 Climbing Houston Center
Tue 04:45:16 PM 29.7972 -89.9108 138° Southeast 210 242 12,200 1,488 Climbing Houston Center
Tue 04:46:18 PM 29.7606 -89.8603 130° Southeast 208 239 13,500 1,258 Climbing Houston Center
Tue 04:47:20 PM 29.7214 -89.8069 130° Southeast 214 246 14,800 1,306 Climbing Houston Center
Tue 04:48:22 PM 29.6800 -89.7517 131° Southeast 222 255 16,200 1,355 Climbing Houston Center
Tue 04:49:24 PM 29.6408 -89.6992 131° Southeast 222 255 17,600 1,210 Climbing Houston Center
Tue 04:50:26 PM 29.5942 -89.6353 130° Southeast 218 251 18,700 1,113 Climbing Houston Center
Tue 04:51:28 PM 29.5528 -89.5803 131° Southeast 224 258 19,900 1,016 Climbing Houston Center
Tue 04:52:30 PM 29.5125 -89.5267 131° Southeast 224 258 20,800 912 Climbing Houston Center
Tue 04:53:33 PM 29.4717 -89.4714 130° Southeast 226 260 21,800 960 Climbing Houston Center
Tue 04:54:35 PM 29.4300 -89.4158 131° Southeast 229 264 22,800 1,016 Climbing Houston Center
Tue 04:55:37 PM 29.3919 -89.3631 130° Southeast 221 254 23,900 871 Climbing Houston Center
Tue 04:56:39 PM 29.3456 -89.3008 131° Southeast 215 247 24,600 726 Climbing Houston Center
Tue 04:57:41 PM 29.3050 -89.2467 131° Southeast 221 254 25,400 774 Climbing Houston Center
Tue 04:58:43 PM 29.2669 -89.1964 131° Southeast 212 244 26,200 720 Climbing Houston Center
Tue 04:59:46 PM 29.2292 -89.1442 130° Southeast 214 246 26,900 384 Climbing Houston Center
Tue 05:00:48 PM 29.1894 -89.0922 131° Southeast 218 251 27,000 48 Climbing Houston Center
Tue 05:01:50 PM 29.1350 -89.0194 131° Southeast 250 288 27,000  Level Houston Center
Tue 05:02:53 PM 29.0867 -88.9567 131° Southeast 261 300 27,000  Level Houston Center
Tue 05:03:54 PM 29.0364 -88.8903 131° Southeast 274 315 27,000  Level Houston Center
Tue 05:04:56 PM 28.9881 -88.8253 130° Southeast 271 312 27,000  Level Houston Center
Tue 05:05:58 PM 28.9378 -88.7589 131° Southeast 275 316 27,000  Level Houston Center
Tue 05:07:00 PM 28.8878 -88.6936 131° Southeast 273 314 27,000  Level Houston Center
Tue 05:08:03 PM 28.8281 -88.6150 131° Southeast 273 314 27,000  Level Houston Center
Tue 05:09:05 PM 28.7781 -88.5494 131° Southeast 274 315 27,000  Level Houston Center
Tue 05:10:07 PM 28.7281 -88.4836 131° Southeast 275 316 27,000  Level Houston Center
Tue 05:11:09 PM 28.6781 -88.4181 131° Southeast 275 316 27,000  Level Houston Center
Tue 05:12:11 PM 28.6292 -88.3533 131° Southeast 271 312 27,000  Level Houston Center
Tue 05:13:13 PM 28.5761 -88.2681 125° Southeast 280 322 27,000  Level Houston Center
Tue 05:14:15 PM 28.5464 -88.1819 111° Southeast 293 337 27,000  Level Houston Center
Tue 05:15:17 PM 28.5147 -88.0917 112° Southeast 288 331 27,000  Level Houston Center
Tue 05:16:19 PM 28.4897 -88.0150 110° East 292 336 27,000  Level Houston Center
Tue 05:17:22 PM 28.4542 -87.9139 112° Southeast 289 333 27,000  Level Houston Center
Tue 05:18:24 PM 28.4244 -87.8267 111° Southeast 294 338 27,000  Level Houston Center
Tue 05:19:26 PM 28.3961 -87.7417 111° Southeast 290 334 27,000  Level Houston Center
Tue 05:20:28 PM 28.3656 -87.6564 112° Southeast 292 336 27,000  Level Houston Center
Tue 05:21:30 PM 28.3364 -87.5703 111° Southeast 293 337 27,000  Level Houston Center
Tue 05:22:32 PM 28.3064 -87.4867 112° Southeast 289 333 27,000  Level Houston Center
Tue 05:23:34 PM 28.2711 -87.3847 111° Southeast 289 333 27,000  Level Houston Center
Tue 05:24:36 PM 28.2414 -87.3022 112° Southeast 286 329 27,000  Level Houston Center
Tue 05:25:39 PM 28.2131 -87.2183 111° Southeast 286 329 27,000  Level Houston Center
Tue 05:27:37 PM 28.1536 -87.0517 112° Southeast 288 331 27,000  Level Jacksonville Center
Tue 05:28:37 PM 28.1211 -86.9611 112° Southeast 288 331 27,000  Level Jacksonville Center
Tue 05:29:37 PM 28.0964 -86.8825 110° East 283 326 27,000  Level Jacksonville Center
Tue 05:30:37 PM 28.0617 -86.7917 113° Southeast 291 335 27,000  Level Jacksonville Center
Tue 05:31:37 PM 28.0347 -86.7156 112° Southeast 277 319 27,000  Level Jacksonville Center
Tue 05:32:37 PM 28.0000 -86.6225 113° Southeast 297 342 27,000  Level Jacksonville Center
Tue 05:33:37 PM 27.9769 -86.5558 111° Southeast 279 321 27,000  Level Jacksonville Center
Tue 05:34:37 PM 27.9461 -86.4656 111° Southeast 285 328 27,000  Level Jacksonville Center
Tue 05:35:37 PM 27.9128 -86.3797 114° Southeast 290 334 27,000  Level Jacksonville Center
Tue 05:36:37 PM 27.8878 -86.3014 110° East 284 327 27,000  Level Jacksonville Center
Tue 05:37:37 PM 27.8567 -86.2206 114° Southeast 277 319 27,000  Level Jacksonville Center
Tue 05:38:37 PM 27.8256 -86.1328 112° Southeast 277 319 27,000  Level Jacksonville Center
Tue 05:39:37 PM 27.7961 -86.0544 113° Southeast 285 328 27,000  Level Jacksonville Center
Tue 05:40:37 PM 27.7647 -85.9739 114° Southeast 275 316 27,000  Level Jacksonville Center
Tue 05:41:37 PM 27.7356 -85.8792 109° East 290 334 27,000  Level Jacksonville Center
Tue 05:42:37 PM 27.7039 -85.8056 116° Southeast 279 321 27,000  Level Jacksonville Center
Tue 05:43:37 PM 27.6725 -85.7133 111° Southeast 280 322 27,000  Level Jacksonville Center
Tue 05:44:37 PM 27.6431 -85.6375 114° Southeast 280 322 27,000  Level Jacksonville Center
Tue 05:45:20 PM 27.6192 -85.5753 113° Southeast 279 321 27,000  Level Miami Center
Tue 05:46:20 PM 27.5886 -85.4958 113° Southeast 288 331 27,000  Level Miami Center
Tue 05:47:20 PM 27.5561 -85.4117 114° Southeast 288 331 27,000  Level Miami Center
Tue 05:48:20 PM 27.5275 -85.3300 112° Southeast 283 326 27,000  Level Miami Center
Tue 05:49:20 PM 27.4928 -85.2456 115° Southeast 283 326 27,000  Level Miami Center
Tue 05:50:20 PM 27.4642 -85.1642 112° Southeast 283 326 27,000  Level Miami Center
Tue 05:51:20 PM 27.4378 -85.0806 110° East 283 326 27,000  Level Miami Center
Tue 05:52:20 PM 27.3986 -84.9983 118° Southeast 283 326 27,000  Level Miami Center
Tue 05:53:20 PM 27.3722 -84.9147 110° East 283 326 27,000  Level Miami Center
Tue 05:54:20 PM 27.3433 -84.8333 112° Southeast 283 326 27,000  Level Miami Center
Tue 05:55:20 PM 27.3169 -84.7450 109° East 283 326 27,000  Level Miami Center
Tue 05:56:20 PM 27.3114 -84.6536 94° East 283 326 27,000  Level Miami Center
Tue 05:57:20 PM 27.3122 -84.5603 89° East 290 334 27,000  Level Miami Center
Tue 05:58:20 PM 27.3069 -84.4644 94° East 297 342 27,000  Level Miami Center
Tue 05:59:20 PM 27.3033 -84.3731 93° East 297 342 27,000  Level Miami Center
Tue 06:00:20 PM 27.2997 -84.2794 92° East 297 342 27,000  Level Miami Center
Tue 06:01:20 PM 27.3172 -84.1850 78° East 292 336 27,000  Level Miami Center
Tue 06:02:20 PM 27.3531 -84.0961 66° East 292 336 27,000  Level Miami Center
Tue 06:03:20 PM 27.3806 -84.0044 71° East 302 348 27,000  Level Miami Center
Tue 06:04:20 PM 27.4078 -83.9128 71° East 308 354 27,000  Level Miami Center
Tue 06:05:20 PM 27.4394 -83.8211 69° East 308 354 27,000  Level Miami Center
Tue 06:06:20 PM 27.4375 -83.7322 91° East 285 328 27,000  Level Miami Center
Tue 06:07:20 PM 27.3928 -83.6617 126° Southeast 259 298 27,000  Level Miami Center
Tue 06:08:20 PM 27.3503 -83.5939 125° Southeast 267 307 27,000  Level Miami Center
Tue 06:09:20 PM 27.2967 -83.5347 136° Southeast 267 307 27,000  Level Miami Center
Tue 06:10:20 PM 27.2408 -83.4778 138° Southeast 267 307 27,000  Level Miami Center
Tue 06:11:20 PM 27.1806 -83.4253 142° Southeast 267 307 27,000  Level Miami Center
Tue 06:12:20 PM 27.1267 -83.3733 139° Southeast 267 307 27,000  Level Miami Center
Tue 06:13:20 PM 27.0706 -83.3189 139° Southeast 268 308 27,000 -200 Level Miami Center
Tue 06:14:20 PM 27.0128 -83.2597 138° Southeast 268 308 26,600 -750 Descending Miami Center
Tue 06:15:20 PM 26.9528 -83.2006 139° Southeast 278 320 25,500 -1,150 Descending Miami Center
Tue 06:16:20 PM 26.8869 -83.1342 138° Southeast 298 343 24,300 -1,250 Descending Miami Center
Tue 06:17:20 PM 26.8189 -83.0656 138° Southeast 316 364 23,000 -1,400 Descending Miami Center
Tue 06:18:20 PM 26.7508 -82.9992 139° Southeast 321 369 21,500 -1,500 Descending Miami Center
Tue 06:19:20 PM 26.6847 -82.9331 138° Southeast 326 375 20,000 -1,500 Descending Miami Center
Tue 06:20:20 PM 26.6164 -82.8667 139° Southeast 321 369 18,500 -1,550 Descending Miami Center
Tue 06:21:20 PM 26.5542 -82.8056 139° Southeast 321 369 16,900 -1,500 Descending Miami Center
Tue 06:22:20 PM 26.4900 -82.7419 138° Southeast 316 364 15,500 -1,400 Descending Miami Center
Tue 06:23:20 PM 26.4367 -82.6675 129° Southeast 316 364 14,100 -1,400 Descending Miami Center
Tue 06:24:20 PM 26.4156 -82.5714 104° East 304 350 12,700 -1,450 Descending Miami Center
Tue 06:25:20 PM 26.3925 -82.4661 104° East 310 357 11,200 -1,400 Descending Miami Center
Tue 06:26:20 PM 26.3708 -82.3769 105° East 302 348 9,900 -1,300 Descending Miami Center
Tue 06:27:20 PM 26.3492 -82.2856 105° East 302 348 8,600 -1,300 Descending Miami Center
Tue 06:28:20 PM 26.3253 -82.1964 107° East 302 348 7,300 -1,300 Descending Miami Center
Tue 06:29:20 PM 26.3033 -82.1122 106° East 297 342 6,000 -1,250 Descending Miami Center
Tue 06:30:20 PM 26.2833 -82.0303 105° East 285 328 4,800 -1,250 Descending Miami Center
Tue 06:31:20 PM 26.2628 -81.9644 109° East 257 296 3,500 -1,300 Descending Miami Center
Tue 06:32:20 PM 26.2358 -81.8983 114° Southeast 238 274 2,200 -950 Descending Miami Center
Tue 06:33:20 PM 26.2106 -81.8442 117° Southeast 214 246 1,600 -750 Descending Miami Center
Tue 06:34:20 PM 26.1825 -81.8083 131° Southeast 171 197 700 -900 Descending Miami Center
Tue 06:36:00 PM 26.1524 -81.7756 113° Southeast  Level Estimated
Tue 06:43:00 PM 26.1524 -81.7756 113° Southeast  Level Estimated
Tue 06:44:00 PM 26.1524 -81.7756 113° Southeast  Level Estimated

Login

Don't have an account? Register now (free) for customized features, flight alerts, and more!